createdAt,value
2022-09-26T00:01:25.393Z,14.28
2022-09-26T00:04:05.123Z,14.30
2022-09-26T00:06:32.085Z,14.28
2022-09-26T00:08:59.025Z,14.31
2022-09-26T00:11:32.187Z,14.32
2022-09-26T00:14:01.797Z,14.33
2022-09-26T00:16:29.395Z,14.33
2022-09-26T00:18:58.997Z,14.35
2022-09-26T00:21:28.631Z,14.37
2022-09-26T00:23:56.736Z,14.34
2022-09-26T00:26:25.552Z,14.37
2022-09-26T00:28:52.864Z,14.37
2022-09-26T00:31:23.008Z,14.39
2022-09-26T00:33:50.428Z,14.37
2022-09-26T00:36:17.576Z,14.40
2022-09-26T00:38:45.213Z,14.46
2022-09-26T00:41:13.536Z,14.49
2022-09-26T00:43:46.279Z,14.45
2022-09-26T00:46:32.469Z,14.44
2022-09-26T00:49:24.430Z,14.29
2022-09-26T00:52:32.511Z,14.23
2022-09-26T00:55:03.004Z,14.16
2022-09-26T00:57:49.692Z,14.13
2022-09-26T01:00:16.738Z,14.07
2022-09-26T01:02:47.087Z,14.04
2022-09-26T01:05:17.093Z,13.99
2022-09-26T01:07:44.617Z,13.98
2022-09-26T01:10:12.349Z,13.96
2022-09-26T01:12:39.296Z,13.93
2022-09-26T01:15:09.168Z,13.92
2022-09-26T01:17:38.989Z,13.89
2022-09-26T01:20:27.194Z,13.92
2022-09-26T01:23:18.471Z,13.85
2022-09-26T01:26:05.462Z,13.80
2022-09-26T01:28:44.733Z,13.81
2022-09-26T01:31:28.710Z,13.80
2022-09-26T01:34:01.682Z,13.83
2022-09-26T01:36:48.152Z,13.87
2022-09-26T01:39:50.494Z,13.81
2022-09-26T01:42:36.212Z,13.71
2022-09-26T01:45:21.998Z,13.65
2022-09-26T01:48:05.684Z,13.62
2022-09-26T01:50:54.654Z,13.61
2022-09-26T01:53:29.392Z,13.60
2022-09-26T01:56:07.320Z,13.63
2022-09-26T01:58:48.220Z,13.67
2022-09-26T02:01:18.957Z,13.66
2022-09-26T02:03:51.206Z,13.70
2022-09-26T02:06:25.559Z,13.77
2022-09-26T02:09:09.491Z,13.79
2022-09-26T02:11:40.725Z,13.76
2022-09-26T02:14:13.616Z,13.67
2022-09-26T02:16:55.218Z,13.61
2022-09-26T02:19:28.968Z,13.56
2022-09-26T02:21:58.910Z,13.52
2022-09-26T02:24:26.499Z,13.44
2022-09-26T02:26:54.236Z,13.46
2022-09-26T02:29:22.120Z,13.45
2022-09-26T02:32:04.203Z,13.49
2022-09-26T02:34:31.234Z,13.49
2022-09-26T02:37:01.007Z,13.55
2022-09-26T02:39:31.818Z,13.62
2022-09-26T02:42:24.862Z,13.59
2022-09-26T02:45:12.067Z,13.51
2022-09-26T02:47:57.494Z,13.46
2022-09-26T02:50:38.984Z,13.51
2022-09-26T02:53:35.133Z,13.52
2022-09-26T02:56:03.499Z,13.53
2022-09-26T02:58:59.817Z,13.56
2022-09-26T03:01:53.600Z,13.56
2022-09-26T03:04:29.181Z,13.52
2022-09-26T03:07:00.536Z,13.54
2022-09-26T03:09:30.433Z,13.50
2022-09-26T03:12:01.821Z,13.43
2022-09-26T03:14:31.660Z,13.41
2022-09-26T03:16:59.972Z,13.38
2022-09-26T03:19:39.904Z,13.36
2022-09-26T03:22:07.335Z,13.27
2022-09-26T03:24:36.821Z,13.27
2022-09-26T03:27:05.614Z,13.20
2022-09-26T03:29:35.994Z,13.21
2022-09-26T03:32:03.830Z,13.21
2022-09-26T03:34:31.553Z,13.22
2022-09-26T03:36:58.487Z,13.22
2022-09-26T03:39:25.523Z,13.19
2022-09-26T03:42:06.837Z,13.23
2022-09-26T03:44:34.127Z,13.27
2022-09-26T03:47:04.703Z,13.29
2022-09-26T03:49:36.334Z,13.27
2022-09-26T03:52:03.939Z,13.29
2022-09-26T03:54:30.937Z,13.26
2022-09-26T03:56:57.832Z,13.22
2022-09-26T03:59:24.779Z,13.13
2022-09-26T04:01:52.451Z,13.14
2022-09-26T04:04:19.407Z,13.18
2022-09-26T04:06:46.715Z,13.23
2022-09-26T04:09:17.634Z,13.24
2022-09-26T04:11:51.589Z,13.30
2022-09-26T04:14:18.592Z,13.35
2022-09-26T04:16:49.110Z,13.37
2022-09-26T04:19:42.224Z,13.31
2022-09-26T04:22:09.938Z,13.36
2022-09-26T04:24:37.704Z,13.39
2022-09-26T04:27:05.891Z,13.44
2022-09-26T04:29:33.500Z,13.48
2022-09-26T04:32:10.238Z,13.44
2022-09-26T04:35:00.181Z,13.42
2022-09-26T04:37:27.721Z,13.43
2022-09-26T04:39:54.671Z,13.46
2022-09-26T04:42:21.915Z,13.46
2022-09-26T04:44:49.177Z,13.48
2022-09-26T04:47:17.131Z,13.50
2022-09-26T04:50:02.482Z,13.48
2022-09-26T04:52:30.708Z,13.50
2022-09-26T04:54:57.697Z,13.54
2022-09-26T04:57:24.644Z,13.58
2022-09-26T04:59:52.382Z,13.61
2022-09-26T05:02:20.854Z,13.61
2022-09-26T05:04:48.431Z,13.58
2022-09-26T05:07:16.435Z,13.66
2022-09-26T05:09:43.568Z,13.70
2022-09-26T05:12:13.619Z,13.74
2022-09-26T05:14:44.814Z,13.77
2022-09-26T05:17:11.898Z,13.82
2022-09-26T05:19:39.800Z,13.88
2022-09-26T05:22:36.539Z,13.92
2022-09-26T05:25:23.549Z,13.93
2022-09-26T05:27:50.818Z,13.90
2022-09-26T05:30:19.024Z,13.93
2022-09-26T05:32:48.556Z,14.02
2022-09-26T05:35:17.004Z,14.07
2022-09-26T05:37:44.590Z,14.08
2022-09-26T05:40:32.956Z,14.16
2022-09-26T05:43:03.715Z,14.27
2022-09-26T05:45:31.403Z,14.32
2022-09-26T05:48:02.697Z,14.33
2022-09-26T05:50:30.182Z,14.32
2022-09-26T05:52:58.748Z,14.40
2022-09-26T05:55:28.393Z,14.42
2022-09-26T05:58:21.299Z,14.43
2022-09-26T06:01:21.946Z,14.46
2022-09-26T06:03:56.326Z,14.48
2022-09-26T06:06:28.034Z,14.51
2022-09-26T06:09:03.409Z,14.56
2022-09-26T06:11:50.915Z,14.60
2022-09-26T06:14:18.136Z,14.63
2022-09-26T06:16:45.087Z,14.68
2022-09-26T06:19:14.314Z,14.75
2022-09-26T06:21:44.200Z,14.79
2022-09-26T06:24:15.763Z,14.83
2022-09-26T06:26:43.358Z,14.87
2022-09-26T06:29:11.130Z,14.93
2022-09-26T06:31:42.020Z,14.88
2022-09-26T06:34:09.299Z,14.87
2022-09-26T06:36:49.148Z,14.87
2022-09-26T06:39:16.400Z,14.78
2022-09-26T06:41:45.477Z,14.76
2022-09-26T06:44:35.986Z,14.78
2022-09-26T06:47:36.263Z,14.77
2022-09-26T06:50:32.892Z,14.75
2022-09-26T06:53:12.291Z,14.84
2022-09-26T06:55:40.000Z,14.81
2022-09-26T06:58:07.882Z,14.80
2022-09-26T07:00:48.662Z,14.84
2022-09-26T07:03:26.711Z,14.88
2022-09-26T07:06:03.535Z,14.90
2022-09-26T07:08:57.804Z,14.97
2022-09-26T07:11:56.267Z,14.97
2022-09-26T07:14:07.554Z,14.88
2022-09-26T07:16:35.405Z,14.93
2022-09-26T07:19:22.840Z,14.97
2022-09-26T07:22:02.317Z,15.08
2022-09-26T07:24:40.123Z,15.16
2022-09-26T07:27:07.662Z,15.23
2022-09-26T07:29:34.971Z,15.28
2022-09-26T07:32:02.355Z,15.40
2022-09-26T07:34:40.560Z,15.50
2022-09-26T07:37:07.969Z,15.59
2022-09-26T07:39:34.901Z,15.61
2022-09-26T07:42:03.874Z,15.72
2022-09-26T07:45:17.027Z,15.75
2022-09-26T07:47:37.083Z,15.84
2022-09-26T07:50:17.759Z,15.84
2022-09-26T07:53:04.145Z,15.66
2022-09-26T07:56:07.297Z,15.69
2022-09-26T07:58:54.757Z,15.57
2022-09-26T08:01:40.861Z,15.55
2022-09-26T08:04:34.876Z,15.59
2022-09-26T08:07:03.129Z,15.54
2022-09-26T08:09:31.385Z,15.64
2022-09-26T08:12:18.523Z,15.73
2022-09-26T08:15:07.442Z,15.78
2022-09-26T08:18:00.869Z,15.79
2022-09-26T08:20:32.030Z,15.92
2022-09-26T08:23:00.397Z,16.04
2022-09-26T08:25:28.676Z,16.20
2022-09-26T08:28:01.056Z,16.32
2022-09-26T08:30:31.722Z,16.48
2022-09-26T08:33:02.256Z,16.66
2022-09-26T08:35:34.329Z,16.72
2022-09-26T08:38:40.275Z,16.68
2022-09-26T08:41:55.957Z,16.69
2022-09-26T08:45:38.811Z,16.84
2022-09-26T08:48:54.131Z,16.84
2022-09-26T08:51:32.121Z,16.96
2022-09-26T08:54:17.450Z,17.02
2022-09-26T08:56:52.197Z,16.88
2022-09-26T08:59:34.589Z,16.87
2022-09-26T09:02:19.163Z,17.04
2022-09-26T09:05:24.192Z,17.17
2022-09-26T09:07:54.891Z,17.33
2022-09-26T09:10:48.421Z,17.44
2022-09-26T09:13:40.409Z,17.57
2022-09-26T09:16:32.607Z,17.75
2022-09-26T09:19:19.721Z,17.83
2022-09-26T09:22:31.117Z,17.98
2022-09-26T09:27:52.462Z,18.13
2022-09-26T09:29:03.485Z,18.13
2022-09-26T09:31:38.042Z,18.19
2022-09-26T09:34:51.509Z,18.26
2022-09-26T09:37:53.882Z,18.37
2022-09-26T09:40:43.442Z,18.50
2022-09-26T09:43:26.986Z,18.63
2022-09-26T09:46:02.536Z,18.67
2022-09-26T09:48:30.319Z,18.72
2022-09-26T09:51:20.048Z,18.78
2022-09-26T09:54:00.549Z,18.82
2022-09-26T09:56:39.540Z,18.92
2022-09-26T09:59:20.081Z,19.08
2022-09-26T10:02:37.832Z,19.21
2022-09-26T10:05:36.002Z,19.34
2022-09-26T10:08:11.631Z,19.44
2022-09-26T10:11:03.434Z,19.42
2022-09-26T10:13:56.390Z,19.40
2022-09-26T10:17:11.967Z,19.53
2022-09-26T10:19:51.153Z,19.57
2022-09-26T10:22:37.274Z,19.46
2022-09-26T10:25:19.331Z,19.34
2022-09-26T10:27:55.498Z,19.30
2022-09-26T10:30:28.681Z,19.36
2022-09-26T10:33:06.233Z,19.51
2022-09-26T10:35:44.595Z,19.69
2022-09-26T10:38:21.360Z,19.76
2022-09-26T10:41:01.692Z,19.77
2022-09-26T10:43:35.093Z,19.74
2022-09-26T10:46:24.040Z,19.69
2022-09-26T10:48:56.409Z,19.57
2022-09-26T10:51:48.091Z,19.49
2022-09-26T10:54:19.880Z,19.39
2022-09-26T10:56:59.525Z,19.36
2022-09-26T10:59:33.033Z,19.29
2022-09-26T11:02:04.141Z,19.25
2022-09-26T11:04:54.083Z,19.19
2022-09-26T11:07:54.040Z,19.09
2022-09-26T11:10:54.611Z,19.01
2022-09-26T11:13:48.354Z,19.05
2022-09-26T11:16:20.367Z,19.02
2022-09-26T11:19:29.284Z,19.02
2022-09-26T11:22:16.340Z,18.96
2022-09-26T11:24:47.974Z,18.91
2022-09-26T11:27:46.138Z,18.81
2022-09-26T11:30:21.801Z,18.69
2022-09-26T11:33:01.058Z,18.58
2022-09-26T11:35:34.395Z,18.60
2022-09-26T11:38:48.187Z,18.59
2022-09-26T11:41:37.781Z,18.49
2022-09-26T11:44:34.689Z,18.45
2022-09-26T11:47:57.826Z,18.46
2022-09-26T11:50:58.172Z,18.42
2022-09-26T11:53:50.281Z,18.34
2022-09-26T11:56:39.695Z,18.33
2022-09-26T11:59:58.007Z,18.32
2022-09-26T12:02:47.475Z,18.31
2022-09-26T12:05:44.105Z,18.29
2022-09-26T12:08:23.213Z,18.33
2022-09-26T12:10:57.183Z,18.27
2022-09-26T12:13:52.622Z,18.29
2022-09-26T12:16:29.236Z,18.26
2022-09-26T12:19:18.122Z,18.24
2022-09-26T12:22:29.886Z,18.24
2022-09-26T12:25:22.928Z,18.16
2022-09-26T12:28:22.611Z,18.17
2022-09-26T12:31:01.318Z,18.18
2022-09-26T12:33:33.838Z,18.19
2022-09-26T12:36:25.506Z,18.25
2022-09-26T12:39:22.120Z,18.24
2022-09-26T12:42:32.624Z,18.30
2022-09-26T12:45:24.526Z,18.33
2022-09-26T12:48:14.735Z,18.46
2022-09-26T12:51:09.230Z,18.46
2022-09-26T12:54:11.786Z,18.57
2022-09-26T12:56:55.866Z,18.57
2022-09-26T12:59:23.548Z,18.69
2022-09-26T13:02:00.688Z,18.74
2022-09-26T13:04:43.247Z,18.83
2022-09-26T13:07:28.790Z,18.91
2022-09-26T13:10:28.104Z,18.98
2022-09-26T13:13:23.337Z,18.97
2022-09-26T13:16:05.039Z,18.99
2022-09-26T13:18:43.592Z,19.03
2022-09-26T13:21:16.044Z,18.95
2022-09-26T13:23:55.971Z,19.00
2022-09-26T13:26:29.155Z,19.00
2022-09-26T13:29:17.165Z,19.00
2022-09-26T13:31:59.918Z,19.03
2022-09-26T13:34:37.673Z,18.93
2022-09-26T13:37:10.214Z,18.92
2022-09-26T13:40:03.622Z,18.90
2022-09-26T13:42:45.908Z,18.82
2022-09-26T13:45:25.998Z,18.78
2022-09-26T13:48:13.916Z,18.77
2022-09-26T13:50:45.575Z,18.70
2022-09-26T13:53:30.369Z,18.65
2022-09-26T13:56:47.886Z,18.64
2022-09-26T13:59:15.805Z,18.59
2022-09-26T14:02:20.607Z,18.61
2022-09-26T14:04:50.213Z,18.63
2022-09-26T14:07:38.514Z,18.69
2022-09-26T14:10:34.958Z,18.71
2022-09-26T14:13:11.538Z,18.64
2022-09-26T14:15:48.019Z,18.70
2022-09-26T14:18:28.482Z,18.67
2022-09-26T14:21:00.000Z,18.70
2022-09-26T14:23:41.846Z,18.73
2022-09-26T14:26:28.673Z,18.74
2022-09-26T14:29:24.887Z,18.74
2022-09-26T14:32:05.375Z,18.74
2022-09-26T14:34:57.717Z,18.75
2022-09-26T14:37:25.064Z,18.75
2022-09-26T14:40:23.066Z,18.77
2022-09-26T14:43:19.959Z,18.78
2022-09-26T14:45:50.882Z,18.76
2022-09-26T14:48:17.953Z,18.75
2022-09-26T14:51:00.730Z,18.79
2022-09-26T14:53:42.829Z,18.79
2022-09-26T14:56:18.788Z,18.78
2022-09-26T14:58:50.207Z,18.77
2022-09-26T15:01:18.903Z,18.77
2022-09-26T15:04:03.788Z,18.82
2022-09-26T15:06:39.423Z,18.78
2022-09-26T15:09:21.863Z,18.78
2022-09-26T15:11:55.337Z,18.73
2022-09-26T15:14:41.493Z,18.72
2022-09-26T15:17:18.046Z,18.71
2022-09-26T15:19:52.188Z,18.64
2022-09-26T15:22:23.859Z,18.64
2022-09-26T15:24:55.358Z,18.59
2022-09-26T15:27:29.285Z,18.55
2022-09-26T15:30:16.054Z,18.50
2022-09-26T15:32:43.666Z,18.42
2022-09-26T15:35:13.801Z,18.38
2022-09-26T15:37:42.370Z,18.35
2022-09-26T15:40:24.022Z,18.33
2022-09-26T15:43:09.315Z,18.29
2022-09-26T15:45:37.951Z,18.19
2022-09-26T15:48:20.133Z,18.19
2022-09-26T15:50:47.777Z,18.15
2022-09-26T15:53:26.414Z,18.14
2022-09-26T15:56:00.209Z,18.12
2022-09-26T15:58:37.577Z,18.14
2022-09-26T16:01:05.605Z,18.11
2022-09-26T16:03:37.529Z,18.08
2022-09-26T16:06:23.153Z,18.10
2022-09-26T16:09:00.477Z,18.07
2022-09-26T16:11:28.697Z,18.04
2022-09-26T16:13:56.740Z,18.07
2022-09-26T16:16:32.289Z,18.11
2022-09-26T16:19:04.123Z,18.07
2022-09-26T16:21:34.887Z,18.05
2022-09-26T16:24:34.397Z,18.05
2022-09-26T16:27:02.482Z,17.98
2022-09-26T16:29:35.470Z,17.98
2022-09-26T16:32:05.129Z,17.88
2022-09-26T16:34:32.383Z,17.83
2022-09-26T16:36:59.756Z,17.77
2022-09-26T16:39:29.866Z,17.78
2022-09-26T16:42:06.038Z,17.75
2022-09-26T16:44:42.069Z,17.73
2022-09-26T16:47:34.208Z,17.70
2022-09-26T16:50:46.565Z,17.72
2022-09-26T16:53:14.595Z,17.68
2022-09-26T16:55:41.571Z,17.69
2022-09-26T16:58:13.480Z,17.69
2022-09-26T17:01:00.118Z,17.67
2022-09-26T17:03:31.154Z,17.68
2022-09-26T17:06:00.144Z,17.60
2022-09-26T17:08:28.193Z,17.56
2022-09-26T17:10:59.382Z,17.57
2022-09-26T17:13:29.213Z,17.59
2022-09-26T17:16:02.530Z,17.57
2022-09-26T17:18:33.317Z,17.60
2022-09-26T17:21:00.969Z,17.58
2022-09-26T17:23:44.587Z,17.59
2022-09-26T17:26:23.883Z,17.62
2022-09-26T17:28:53.566Z,17.60
2022-09-26T17:31:20.820Z,17.62
2022-09-26T17:33:52.488Z,17.60
2022-09-26T17:36:28.414Z,17.63
2022-09-26T17:38:59.456Z,17.58
2022-09-26T17:41:28.046Z,17.58
2022-09-26T17:43:59.982Z,17.61
2022-09-26T17:46:27.566Z,17.57
2022-09-26T17:48:56.277Z,17.60
2022-09-26T17:51:24.298Z,17.61
2022-09-26T17:53:52.715Z,17.62
2022-09-26T17:56:20.378Z,17.61
2022-09-26T17:58:50.264Z,17.58
2022-09-26T18:01:37.484Z,17.63
2022-09-26T18:04:07.556Z,17.59
2022-09-26T18:06:36.188Z,17.66
2022-09-26T18:09:10.379Z,17.93
2022-09-26T18:11:39.724Z,18.01
2022-09-26T18:14:08.250Z,17.96
2022-09-26T18:16:38.253Z,17.88
2022-09-26T18:19:07.687Z,17.84
2022-09-26T18:21:35.694Z,17.84
2022-09-26T18:24:07.160Z,17.77
2022-09-26T18:26:42.227Z,17.70
2022-09-26T18:29:13.960Z,17.60
2022-09-26T18:31:44.490Z,17.51
2022-09-26T18:34:18.844Z,17.48
2022-09-26T18:36:46.537Z,17.56
2022-09-26T18:39:13.637Z,17.66
2022-09-26T18:41:40.583Z,17.76
2022-09-26T18:44:15.479Z,17.75
2022-09-26T18:46:44.751Z,17.63
2022-09-26T18:49:13.601Z,17.69
2022-09-26T18:51:40.632Z,17.69
2022-09-26T18:54:16.542Z,17.78
2022-09-26T18:57:02.565Z,17.86
2022-09-26T18:59:31.228Z,17.89
2022-09-26T19:02:00.042Z,17.84
2022-09-26T19:04:27.974Z,17.78
2022-09-26T19:07:01.350Z,17.65
2022-09-26T19:09:33.457Z,17.55
2022-09-26T19:12:01.718Z,17.45
2022-09-26T19:14:30.650Z,17.39
2022-09-26T19:16:58.173Z,17.28
2022-09-26T19:19:26.389Z,17.21
2022-09-26T19:21:57.688Z,17.16
2022-09-26T19:24:48.399Z,17.07
2022-09-26T19:27:49.638Z,17.01
2022-09-26T19:30:20.663Z,16.88
2022-09-26T19:32:50.388Z,16.79
2022-09-26T19:35:33.859Z,16.69
2022-09-26T19:38:04.580Z,16.50
2022-09-26T19:40:31.958Z,16.38
2022-09-26T19:42:59.704Z,16.29
2022-09-26T19:45:27.172Z,16.25
2022-09-26T19:47:56.202Z,16.16
2022-09-26T19:50:26.182Z,16.09
2022-09-26T19:52:55.687Z,16.09
2022-09-26T19:55:26.776Z,16.08
2022-09-26T19:58:07.436Z,16.08
2022-09-26T20:00:41.710Z,15.98
2022-09-26T20:03:20.645Z,15.99
2022-09-26T20:05:50.160Z,15.97
2022-09-26T20:08:27.742Z,16.01
2022-09-26T20:10:57.141Z,15.98
2022-09-26T20:13:24.124Z,15.95
2022-09-26T20:15:51.547Z,15.93
2022-09-26T20:18:24.590Z,15.91
2022-09-26T20:20:56.993Z,15.89
2022-09-26T20:23:26.879Z,15.88
2022-09-26T20:25:55.182Z,15.86
2022-09-26T20:28:22.934Z,15.84
2022-09-26T20:30:53.058Z,15.80
2022-09-26T20:33:22.422Z,15.79
2022-09-26T20:36:11.078Z,15.82
2022-09-26T20:38:45.437Z,15.82
2022-09-26T20:41:26.347Z,15.76
2022-09-26T20:44:01.994Z,15.77
2022-09-26T20:46:34.066Z,15.79
2022-09-26T20:49:11.263Z,15.78
2022-09-26T20:51:39.044Z,15.85
2022-09-26T20:54:14.958Z,15.85
2022-09-26T20:56:42.085Z,15.84
2022-09-26T20:59:09.144Z,15.87
2022-09-26T21:01:36.286Z,15.89
2022-09-26T21:04:05.405Z,15.88
2022-09-26T21:06:34.631Z,15.87
2022-09-26T21:09:02.746Z,15.84
2022-09-26T21:11:29.591Z,16.01
2022-09-26T21:13:57.076Z,15.96
2022-09-26T21:16:24.053Z,15.99
2022-09-26T21:18:52.854Z,15.94
2022-09-26T21:21:26.648Z,15.95
2022-09-26T21:24:32.377Z,15.87
2022-09-26T21:27:00.400Z,15.83
2022-09-26T21:29:27.575Z,15.82
2022-09-26T21:32:04.942Z,15.80
2022-09-26T21:34:33.413Z,15.77
2022-09-26T21:37:03.770Z,15.76
2022-09-26T21:39:31.662Z,15.73
2022-09-26T21:42:03.166Z,15.77
2022-09-26T21:44:30.230Z,15.77
2022-09-26T21:46:57.286Z,15.75
2022-09-26T21:49:25.344Z,15.73
2022-09-26T21:51:58.594Z,15.76
2022-09-26T21:54:34.404Z,15.74
2022-09-26T21:57:07.839Z,15.77
2022-09-26T21:59:38.383Z,15.76
2022-09-26T22:02:06.685Z,15.76
2022-09-26T22:04:35.467Z,15.78
2022-09-26T22:07:02.762Z,15.74
2022-09-26T22:09:30.650Z,15.70
2022-09-26T22:11:59.953Z,15.68
2022-09-26T22:14:28.637Z,15.67
2022-09-26T22:16:56.070Z,15.70
2022-09-26T22:19:23.291Z,15.71
2022-09-26T22:21:51.244Z,15.64
2022-09-26T22:24:18.142Z,15.68
2022-09-26T22:26:45.648Z,15.69
2022-09-26T22:29:12.947Z,15.65
2022-09-26T22:31:39.816Z,15.68
2022-09-26T22:34:06.686Z,15.69
2022-09-26T22:36:33.516Z,15.66
2022-09-26T22:39:00.697Z,15.66
2022-09-26T22:41:27.582Z,15.64
2022-09-26T22:43:54.512Z,15.64
2022-09-26T22:46:21.735Z,15.62
2022-09-26T22:48:49.169Z,15.64
2022-09-26T22:51:17.603Z,15.61
2022-09-26T22:53:45.228Z,15.60
2022-09-26T22:56:15.196Z,15.61
2022-09-26T22:58:44.363Z,15.58
2022-09-26T23:01:14.394Z,15.54
2022-09-26T23:03:41.398Z,15.52
2022-09-26T23:06:09.429Z,15.50
2022-09-26T23:08:37.094Z,15.47
2022-09-26T23:11:07.025Z,15.52
2022-09-26T23:13:35.651Z,15.56
2022-09-26T23:16:17.432Z,15.62
2022-09-26T23:18:45.180Z,15.61
2022-09-26T23:21:17.547Z,15.65
2022-09-26T23:23:46.841Z,15.66
2022-09-26T23:26:33.431Z,15.62
2022-09-26T23:29:00.635Z,15.57
2022-09-26T23:31:28.153Z,15.55
2022-09-26T23:33:56.263Z,15.51
2022-09-26T23:36:23.891Z,15.52
2022-09-26T23:38:51.029Z,15.54
2022-09-26T23:41:18.391Z,15.53
2022-09-26T23:43:46.595Z,15.48
2022-09-26T23:46:14.127Z,15.46
2022-09-26T23:48:41.376Z,15.43
2022-09-26T23:51:08.854Z,15.46
2022-09-26T23:53:35.797Z,15.45
2022-09-26T23:56:08.981Z,15.45
2022-09-26T23:58:37.240Z,15.40
